createdAt,value
2022-08-20T00:01:16.755Z,36.47
2022-08-20T00:03:44.747Z,33.97
2022-08-20T00:06:20.942Z,33.80
2022-08-20T00:08:48.936Z,35.07
2022-08-20T00:11:21.695Z,35.60
2022-08-20T00:13:54.893Z,36.25
2022-08-20T00:16:24.414Z,37.00
2022-08-20T00:18:51.954Z,37.05
2022-08-20T00:21:20.810Z,35.40
2022-08-20T00:23:52.120Z,36.67
2022-08-20T00:26:20.070Z,37.22
2022-08-20T00:28:47.353Z,35.45
2022-08-20T00:31:18.187Z,42.67
2022-08-20T00:33:46.188Z,40.63
2022-08-20T00:36:15.687Z,36.33
2022-08-20T00:38:44.445Z,37.92
2022-08-20T00:41:16.376Z,41.20
2022-08-20T00:43:47.551Z,40.38
2022-08-20T00:46:19.633Z,44.63
2022-08-20T00:48:49.770Z,45.35
2022-08-20T00:51:41.376Z,45.08
2022-08-20T00:54:18.865Z,42.65
2022-08-20T00:56:50.914Z,41.75
2022-08-20T00:59:22.948Z,43.97
2022-08-20T01:01:55.124Z,44.22
2022-08-20T01:04:27.900Z,43.83
2022-08-20T01:09:49.905Z,48.38
2022-08-20T01:12:10.612Z,49.50
2022-08-20T01:14:45.479Z,49.65
2022-08-20T01:17:22.247Z,52.92
2022-08-20T01:20:01.451Z,52.90
2022-08-20T01:22:58.877Z,50.20
2022-08-20T01:25:39.312Z,52.55
2022-08-20T01:28:06.985Z,65.60
2022-08-20T01:30:34.755Z,60.75
2022-08-20T01:33:02.681Z,58.78
2022-08-20T01:35:30.036Z,64.82
2022-08-20T01:37:57.328Z,61.80
2022-08-20T01:40:38.835Z,60.17
2022-08-20T01:43:06.687Z,65.53
2022-08-20T01:45:33.820Z,69.90
2022-08-20T01:48:01.110Z,62.58
2022-08-20T01:50:32.459Z,64.93
2022-08-20T01:53:06.596Z,64.82
2022-08-20T01:55:33.629Z,61.38
2022-08-20T01:58:01.472Z,60.08
2022-08-20T02:00:28.573Z,59.72
2022-08-20T02:02:55.653Z,63.03
2022-08-20T02:05:23.175Z,63.90
2022-08-20T02:07:50.520Z,55.03
2022-08-20T02:10:19.072Z,61.03
2022-08-20T02:12:46.545Z,60.25
2022-08-20T02:15:14.443Z,63.85
2022-08-20T02:17:42.697Z,57.35
2022-08-20T02:20:14.466Z,43.53
2022-08-20T02:22:53.766Z,54.13
2022-08-20T02:25:27.427Z,50.17
2022-08-20T02:27:56.734Z,54.03
2022-08-20T02:30:33.169Z,52.78
2022-08-20T02:33:05.898Z,54.15
2022-08-20T02:35:34.793Z,64.38
2022-08-20T02:38:02.959Z,56.30
2022-08-20T02:40:31.652Z,57.47
2022-08-20T02:43:00.930Z,66.72
2022-08-20T02:45:29.610Z,70.47
2022-08-20T02:47:57.632Z,74.72
2022-08-20T02:50:26.455Z,65.70
2022-08-20T02:52:54.276Z,57.60
2022-08-20T02:55:26.882Z,70.93
2022-08-20T02:57:58.452Z,60.75
2022-08-20T03:00:26.872Z,52.05
2022-08-20T03:02:54.293Z,49.67
2022-08-20T03:05:21.541Z,41.38
2022-08-20T03:07:53.893Z,38.03
2022-08-20T03:10:32.303Z,37.55
2022-08-20T03:13:02.720Z,33.30
2022-08-20T03:15:31.633Z,36.05
2022-08-20T03:17:58.717Z,34.85
2022-08-20T03:20:27.320Z,36.05
2022-08-20T03:22:54.914Z,30.58
2022-08-20T03:25:22.804Z,36.45
2022-08-20T03:27:54.022Z,38.13
2022-08-20T03:30:25.266Z,36.72
2022-08-20T03:32:52.479Z,40.87
2022-08-20T03:35:21.657Z,51.50
2022-08-20T03:37:48.913Z,50.28
2022-08-20T03:40:21.182Z,51.63
2022-08-20T03:42:48.266Z,53.83
2022-08-20T03:45:20.264Z,53.13
2022-08-20T03:47:48.747Z,51.55
2022-08-20T03:50:23.602Z,53.03
2022-08-20T03:52:52.535Z,43.17
2022-08-20T03:55:20.708Z,46.67
2022-08-20T03:57:53.191Z,39.92
2022-08-20T04:00:24.380Z,36.22
2022-08-20T04:02:51.456Z,35.10
2022-08-20T04:05:19.242Z,32.10
2022-08-20T04:07:46.226Z,38.17
2022-08-20T04:10:14.121Z,37.85
2022-08-20T04:12:52.731Z,38.25
2022-08-20T04:15:21.203Z,41.90
2022-08-20T04:17:54.223Z,49.50
2022-08-20T04:20:24.131Z,51.28
2022-08-20T04:22:59.077Z,57.00
2022-08-20T04:25:35.829Z,59.00
2022-08-20T04:28:06.188Z,64.95
2022-08-20T04:30:33.406Z,62.17
2022-08-20T04:33:01.358Z,60.85
2022-08-20T04:35:29.554Z,52.58
2022-08-20T04:38:06.799Z,49.42
2022-08-20T04:40:54.054Z,49.40
2022-08-20T04:43:23.292Z,46.55
2022-08-20T04:45:52.430Z,46.50
2022-08-20T04:48:20.907Z,48.80
2022-08-20T04:50:47.917Z,45.20
2022-08-20T04:53:20.688Z,38.95
2022-08-20T04:55:51.421Z,46.65
2022-08-20T04:58:25.976Z,46.50
2022-08-20T05:01:01.414Z,40.90
2022-08-20T05:03:29.408Z,39.65
2022-08-20T05:05:57.045Z,39.05
2022-08-20T05:08:25.638Z,35.10
2022-08-20T05:10:58.150Z,30.45
2022-08-20T05:13:42.837Z,31.05
2022-08-20T05:16:10.030Z,28.50
2022-08-20T05:18:37.196Z,31.00
2022-08-20T05:21:06.188Z,28.83
2022-08-20T05:23:36.574Z,30.92
2022-08-20T05:26:09.240Z,27.98
2022-08-20T05:28:52.715Z,30.95
2022-08-20T05:31:32.559Z,28.42
2022-08-20T05:34:02.317Z,24.75
2022-08-20T05:36:29.913Z,24.50
2022-08-20T05:38:57.132Z,28.20
2022-08-20T05:41:28.837Z,21.08
2022-08-20T05:44:02.968Z,21.42
2022-08-20T05:46:31.957Z,21.90
2022-08-20T05:49:02.142Z,22.30
2022-08-20T05:51:30.028Z,26.48
2022-08-20T05:53:58.296Z,20.55
2022-08-20T05:56:30.870Z,21.98
2022-08-20T05:59:09.844Z,23.27
2022-08-20T06:01:39.196Z,23.85
2022-08-20T06:04:28.488Z,23.70
2022-08-20T06:07:04.220Z,23.20
2022-08-20T06:09:32.901Z,22.85
2022-08-20T06:12:03.056Z,19.60
2022-08-20T06:14:30.912Z,20.23
2022-08-20T06:17:13.725Z,25.52
2022-08-20T06:19:44.682Z,26.80
2022-08-20T06:22:21.257Z,25.08
2022-08-20T06:24:54.057Z,21.83
2022-08-20T06:27:22.531Z,22.25
2022-08-20T06:29:50.953Z,20.00
2022-08-20T06:32:19.904Z,21.98
2022-08-20T06:35:02.166Z,25.13
2022-08-20T06:37:31.936Z,23.75
2022-08-20T06:40:12.580Z,25.10
2022-08-20T06:42:45.739Z,22.47
2022-08-20T06:45:18.543Z,22.40
2022-08-20T06:47:46.714Z,26.83
2022-08-20T06:50:17.462Z,21.98
2022-08-20T06:52:52.131Z,29.33
2022-08-20T06:55:22.024Z,24.73
2022-08-20T06:57:56.933Z,22.00
2022-08-20T07:00:23.966Z,25.65
2022-08-20T07:02:51.060Z,19.35
2022-08-20T07:05:18.096Z,21.83
2022-08-20T07:07:47.362Z,22.80
2022-08-20T07:10:15.552Z,20.65
2022-08-20T07:12:43.113Z,18.92
2022-08-20T07:15:11.738Z,19.52
2022-08-20T07:17:39.439Z,22.63
2022-08-20T07:20:09.343Z,21.65
2022-08-20T07:22:37.023Z,23.88
2022-08-20T07:25:06.450Z,23.52
2022-08-20T07:27:34.521Z,20.38
2022-08-20T07:30:21.277Z,22.52
2022-08-20T07:32:48.445Z,23.27
2022-08-20T07:35:17.588Z,23.27
2022-08-20T07:37:48.403Z,20.55
2022-08-20T07:40:44.051Z,24.08
2022-08-20T07:43:17.537Z,20.70
2022-08-20T07:45:45.164Z,20.58
2022-08-20T07:48:31.079Z,21.33
2022-08-20T07:51:05.794Z,24.85
2022-08-20T07:53:36.011Z,23.77
2022-08-20T07:56:07.591Z,21.57
2022-08-20T08:01:10.666Z,21.23
2022-08-20T08:03:40.970Z,21.60
2022-08-20T08:06:30.299Z,21.27
2022-08-20T08:09:07.707Z,19.52
2022-08-20T08:11:38.195Z,21.00
2022-08-20T08:14:08.262Z,19.40
2022-08-20T08:16:37.088Z,20.27
2022-08-20T08:19:08.253Z,17.20
2022-08-20T08:21:36.538Z,19.33
2022-08-20T08:24:03.979Z,17.65
2022-08-20T08:26:31.039Z,15.75
2022-08-20T08:28:58.511Z,15.82
2022-08-20T08:31:26.335Z,20.73
2022-08-20T08:33:53.550Z,17.85
2022-08-20T08:36:20.644Z,18.17
2022-08-20T08:38:47.927Z,20.20
2022-08-20T08:41:29.377Z,21.60
2022-08-20T08:46:28.306Z,21.42
2022-08-20T08:49:01.600Z,19.38
2022-08-20T08:51:47.248Z,19.92
2022-08-20T08:54:17.575Z,20.02
2022-08-20T08:56:49.862Z,18.50
2022-08-20T08:59:19.716Z,16.25
2022-08-20T09:01:56.940Z,28.73
2022-08-20T09:04:31.504Z,17.42
2022-08-20T09:06:59.908Z,20.80
2022-08-20T09:09:31.530Z,18.08
2022-08-20T09:12:05.939Z,16.02
2022-08-20T09:14:33.325Z,22.63
2022-08-20T09:17:00.525Z,20.15
2022-08-20T09:19:28.102Z,23.10
2022-08-20T09:21:55.720Z,18.77
2022-08-20T09:24:22.816Z,38.83
2022-08-20T09:26:49.824Z,22.40
2022-08-20T09:29:17.400Z,16.48
2022-08-20T09:31:44.422Z,21.40
2022-08-20T09:34:12.183Z,13.73
2022-08-20T09:36:39.319Z,20.15
2022-08-20T09:39:06.734Z,20.65
2022-08-20T09:41:34.496Z,15.32
2022-08-20T09:44:02.335Z,12.15
2022-08-20T09:46:29.751Z,15.38
2022-08-20T09:48:56.803Z,11.73
2022-08-20T09:51:23.869Z,18.42
2022-08-20T09:53:51.264Z,11.05
2022-08-20T09:56:18.407Z,7.07
2022-08-20T09:58:51.348Z,7.53
2022-08-20T10:01:23.873Z,5.88
2022-08-20T10:03:51.540Z,5.85
2022-08-20T10:06:20.766Z,5.00
2022-08-20T10:08:49.155Z,4.93
2022-08-20T10:11:17.949Z,6.82
2022-08-20T10:13:45.689Z,4.00
2022-08-20T10:16:13.211Z,7.38
2022-08-20T10:18:40.337Z,7.63
2022-08-20T10:21:13.892Z,9.10
2022-08-20T10:23:41.800Z,16.02
2022-08-20T10:26:10.772Z,5.40
2022-08-20T10:28:38.288Z,14.60
2022-08-20T10:31:12.722Z,8.30
2022-08-20T10:33:41.138Z,6.40
2022-08-20T10:36:10.724Z,10.20
2022-08-20T10:38:37.896Z,13.23
2022-08-20T10:41:05.884Z,6.28
2022-08-20T10:43:32.986Z,5.68
2022-08-20T10:46:00.511Z,6.40
2022-08-20T10:48:27.734Z,6.03
2022-08-20T10:50:55.274Z,10.20
2022-08-20T10:53:22.357Z,10.18
2022-08-20T10:55:49.400Z,6.82
2022-08-20T10:58:16.809Z,8.68
2022-08-20T11:00:45.804Z,5.35
2022-08-20T11:03:13.391Z,15.82
2022-08-20T11:05:40.583Z,8.95
2022-08-20T11:08:07.733Z,6.35
2022-08-20T11:10:38.474Z,9.20
2022-08-20T11:13:07.886Z,8.18
2022-08-20T11:15:41.049Z,6.60
2022-08-20T11:18:08.639Z,5.93
2022-08-20T11:20:36.340Z,5.53
2022-08-20T11:23:04.102Z,5.10
2022-08-20T11:25:31.953Z,5.47
2022-08-20T11:27:59.285Z,6.43
2022-08-20T11:30:30.754Z,9.43
2022-08-20T11:32:59.528Z,8.07
2022-08-20T11:35:49.007Z,6.03
2022-08-20T11:38:17.465Z,3.92
2022-08-20T11:40:46.805Z,5.55
2022-08-20T11:45:48.468Z,5.55
2022-08-20T11:48:15.791Z,7.93
2022-08-20T11:50:42.849Z,7.82
2022-08-20T11:53:09.937Z,4.72
2022-08-20T11:55:38.668Z,3.95
2022-08-20T11:58:06.757Z,6.13
2022-08-20T12:00:34.802Z,5.85
2022-08-20T12:03:04.973Z,5.03
2022-08-20T12:05:32.979Z,5.88
2022-08-20T12:08:01.993Z,4.47
2022-08-20T12:10:30.180Z,5.93
2022-08-20T12:12:57.723Z,5.03
2022-08-20T12:15:27.007Z,6.85
2022-08-20T12:17:55.260Z,7.50
2022-08-20T12:20:25.394Z,8.18
2022-08-20T12:22:54.056Z,5.90
2022-08-20T12:25:21.310Z,9.57
2022-08-20T12:27:48.377Z,6.10
2022-08-20T12:30:20.023Z,6.47
2022-08-20T12:32:47.541Z,8.30
2022-08-20T12:35:16.353Z,5.68
2022-08-20T12:37:44.223Z,7.57
2022-08-20T12:40:14.640Z,9.70
2022-08-20T12:42:43.121Z,12.57
2022-08-20T12:45:11.666Z,5.35
2022-08-20T12:47:41.868Z,7.13
2022-08-20T12:50:18.688Z,12.73
2022-08-20T12:52:46.360Z,10.48
2022-08-20T12:55:16.321Z,7.70
2022-08-20T12:57:46.596Z,10.68
2022-08-20T13:00:25.877Z,16.57
2022-08-20T13:02:55.100Z,20.77
2022-08-20T13:05:22.850Z,9.68
2022-08-20T13:07:50.711Z,10.00
2022-08-20T13:10:29.983Z,8.75
2022-08-20T13:12:57.983Z,5.13
2022-08-20T13:15:26.188Z,4.78
2022-08-20T13:17:55.529Z,7.43
2022-08-20T13:20:26.035Z,7.32
2022-08-20T13:22:58.831Z,12.25
2022-08-20T13:25:26.267Z,6.45
2022-08-20T13:27:58.803Z,3.38
2022-08-20T13:30:26.075Z,7.53
2022-08-20T13:32:53.415Z,3.75
2022-08-20T13:35:21.094Z,8.23
2022-08-20T13:37:49.875Z,5.25
2022-08-20T13:40:17.699Z,5.70
2022-08-20T13:42:45.618Z,6.65
2022-08-20T13:45:12.754Z,5.15
2022-08-20T13:47:42.150Z,6.15
2022-08-20T13:50:16.259Z,4.53
2022-08-20T13:52:44.676Z,7.30
2022-08-20T13:55:15.857Z,3.88
2022-08-20T13:57:44.868Z,5.45
2022-08-20T14:00:19.854Z,6.45
2022-08-20T14:02:49.628Z,4.55
2022-08-20T14:05:18.431Z,6.50
2022-08-20T14:07:48.265Z,7.95
2022-08-20T14:10:26.721Z,3.65
2022-08-20T14:12:54.265Z,4.80
2022-08-20T14:15:24.483Z,5.50
2022-08-20T14:17:54.508Z,9.17
2022-08-20T14:20:25.568Z,8.60
2022-08-20T14:22:57.371Z,7.30
2022-08-20T14:25:27.132Z,7.43
2022-08-20T14:27:58.942Z,8.23
2022-08-20T14:30:30.116Z,7.75
2022-08-20T14:32:57.562Z,8.30
2022-08-20T14:35:25.344Z,7.18
2022-08-20T14:37:59.532Z,5.03
2022-08-20T14:40:28.358Z,6.25
2022-08-20T14:42:56.319Z,4.72
2022-08-20T14:45:24.233Z,7.07
2022-08-20T14:47:54.419Z,9.10
2022-08-20T14:50:32.750Z,14.13
2022-08-20T14:53:00.957Z,7.60
2022-08-20T14:55:36.219Z,18.98
2022-08-20T14:58:11.566Z,10.68
2022-08-20T15:00:39.853Z,9.48
2022-08-20T15:03:07.372Z,9.05
2022-08-20T15:05:35.293Z,8.02
2022-08-20T15:08:07.939Z,5.97
2022-08-20T15:10:36.283Z,10.15
2022-08-20T15:13:03.999Z,10.57
2022-08-20T15:15:31.076Z,6.43
2022-08-20T15:18:03.819Z,7.53
2022-08-20T15:20:32.808Z,7.00
2022-08-20T15:23:01.232Z,6.82
2022-08-20T15:25:36.938Z,6.45
2022-08-20T15:28:08.183Z,6.15
2022-08-20T15:30:36.670Z,7.80
2022-08-20T15:33:04.488Z,5.32
2022-08-20T15:35:32.218Z,8.60
2022-08-20T15:37:59.866Z,6.38
2022-08-20T15:40:29.210Z,6.50
2022-08-20T15:43:01.321Z,6.68
2022-08-20T15:45:28.604Z,3.88
2022-08-20T15:48:09.887Z,9.00
2022-08-20T15:51:10.579Z,9.80
2022-08-20T15:53:56.586Z,7.30
2022-08-20T15:56:23.855Z,9.68
2022-08-20T15:59:06.401Z,10.07
2022-08-20T16:01:50.445Z,5.00
2022-08-20T16:04:30.044Z,6.00
2022-08-20T16:07:02.489Z,7.70
2022-08-20T16:09:38.354Z,7.57
2022-08-20T16:12:18.354Z,10.13
2022-08-20T16:14:48.090Z,33.47
2022-08-20T16:17:21.782Z,10.82
2022-08-20T16:19:58.252Z,7.60
2022-08-20T16:22:30.066Z,9.60
2022-08-20T16:24:57.369Z,8.35
2022-08-20T16:27:54.882Z,8.27
2022-08-20T16:30:46.321Z,7.60
2022-08-20T16:33:22.343Z,6.15
2022-08-20T16:36:24.023Z,5.90
2022-08-20T16:38:59.153Z,7.10
2022-08-20T16:41:31.976Z,7.70
2022-08-20T16:44:24.915Z,4.45
2022-08-20T16:47:19.734Z,6.38
2022-08-20T16:49:57.279Z,5.00
2022-08-20T16:52:25.466Z,13.40
2022-08-20T16:54:52.875Z,6.45
2022-08-20T16:57:20.257Z,7.85
2022-08-20T17:00:19.513Z,6.60
2022-08-20T17:02:56.480Z,3.75
2022-08-20T17:05:28.432Z,4.32
2022-08-20T17:08:01.401Z,6.93
2022-08-20T17:10:33.928Z,6.57
2022-08-20T17:13:19.451Z,4.20
2022-08-20T17:16:05.790Z,5.20
2022-08-20T17:18:39.073Z,4.50
2022-08-20T17:21:26.512Z,5.63
2022-08-20T17:24:00.668Z,5.60
2022-08-20T17:26:36.915Z,7.95
2022-08-20T17:29:24.393Z,5.22
2022-08-20T17:31:54.930Z,8.63
2022-08-20T17:34:28.287Z,4.17
2022-08-20T17:37:00.893Z,8.23
2022-08-20T17:39:29.548Z,4.47
2022-08-20T17:42:09.729Z,5.60
2022-08-20T17:44:42.552Z,4.30
2022-08-20T17:47:17.992Z,5.38
2022-08-20T17:50:01.985Z,3.47
2022-08-20T17:52:45.554Z,5.60
2022-08-20T17:55:13.516Z,5.22
2022-08-20T17:57:44.222Z,5.03
2022-08-20T18:00:16.601Z,3.90
2022-08-20T18:02:44.555Z,5.22
2022-08-20T18:05:21.039Z,4.38
2022-08-20T18:08:17.127Z,4.38
2022-08-20T18:11:02.019Z,5.22
2022-08-20T18:13:48.303Z,4.97
2022-08-20T18:16:43.079Z,6.68
2022-08-20T18:19:17.791Z,4.75
2022-08-20T18:22:09.520Z,5.60
2022-08-20T18:24:45.215Z,6.32
2022-08-20T18:27:16.852Z,4.22
2022-08-20T18:29:48.916Z,2.83
2022-08-20T18:32:30.201Z,3.25
2022-08-20T18:35:18.004Z,7.60
2022-08-20T18:37:45.392Z,7.07
2022-08-20T18:40:34.697Z,5.47
2022-08-20T18:43:12.920Z,5.68
2022-08-20T18:45:40.210Z,4.47
2022-08-20T18:48:07.729Z,6.25
2022-08-20T18:50:40.878Z,3.95
2022-08-20T18:53:17.248Z,3.67
2022-08-20T18:55:47.354Z,2.67
2022-08-20T18:58:29.821Z,3.13
2022-08-20T19:00:58.232Z,5.80
2022-08-20T19:03:32.119Z,4.20
2022-08-20T19:06:08.160Z,7.65
2022-08-20T19:09:06.176Z,4.05
2022-08-20T19:12:01.709Z,5.43
2022-08-20T19:14:50.779Z,5.57
2022-08-20T19:17:36.091Z,4.93
2022-08-20T19:20:23.746Z,32.50
2022-08-20T19:22:54.277Z,8.10
2022-08-20T19:25:31.502Z,11.27
2022-08-20T19:28:16.825Z,7.03
2022-08-20T19:30:46.823Z,6.50
2022-08-20T19:33:14.158Z,6.55
2022-08-20T19:35:41.661Z,6.38
2022-08-20T19:38:16.530Z,10.25
2022-08-20T19:40:46.268Z,6.57
2022-08-20T19:43:20.087Z,6.30
2022-08-20T19:45:54.478Z,7.00
2022-08-20T19:49:03.677Z,4.90
2022-08-20T19:51:37.215Z,8.55
2022-08-20T19:54:23.437Z,15.05
2022-08-20T19:56:55.459Z,4.05
2022-08-20T19:59:26.508Z,6.63
2022-08-20T20:01:58.903Z,6.05
2022-08-20T20:04:29.761Z,13.90
2022-08-20T20:06:58.893Z,7.43
2022-08-20T20:09:29.742Z,6.63
2022-08-20T20:12:05.498Z,9.18
2022-08-20T20:14:35.618Z,8.55
2022-08-20T20:17:10.202Z,5.20
2022-08-20T20:19:49.166Z,7.70
2022-08-20T20:22:26.759Z,10.50
2022-08-20T20:25:22.086Z,7.60
2022-08-20T20:27:52.626Z,7.18
2022-08-20T20:30:30.567Z,7.53
2022-08-20T20:33:03.046Z,5.95
2022-08-20T20:35:33.649Z,9.43
2022-08-20T20:38:08.881Z,4.87
2022-08-20T20:40:54.655Z,5.93
2022-08-20T20:43:29.508Z,5.93
2022-08-20T20:46:02.373Z,8.00
2022-08-20T20:48:49.662Z,9.35
2022-08-20T20:51:29.850Z,17.05
2022-08-20T20:54:03.693Z,6.63
2022-08-20T20:56:33.092Z,5.28
2022-08-20T20:59:06.237Z,3.50
2022-08-20T21:01:47.969Z,13.25
2022-08-20T21:04:22.245Z,30.23
2022-08-20T21:06:51.515Z,7.05
2022-08-20T21:09:20.415Z,7.70
2022-08-20T21:11:48.168Z,6.07
2022-08-20T21:14:16.283Z,8.00
2022-08-20T21:16:43.756Z,42.15
2022-08-20T21:19:11.996Z,7.45
2022-08-20T21:21:39.857Z,6.43
2022-08-20T21:24:08.046Z,7.03
2022-08-20T21:26:36.557Z,3.85
2022-08-20T21:29:06.500Z,7.50
2022-08-20T21:31:36.470Z,9.70
2022-08-20T21:34:03.905Z,12.82
2022-08-20T21:36:31.342Z,6.88
2022-08-20T21:38:58.400Z,9.95
2022-08-20T21:41:29.978Z,3.80
2022-08-20T21:43:58.995Z,5.50
2022-08-20T21:46:29.325Z,5.00
2022-08-20T21:48:56.568Z,11.35
2022-08-20T21:51:23.717Z,6.68
2022-08-20T21:53:51.222Z,5.15
2022-08-20T21:56:18.971Z,5.85
2022-08-20T21:58:47.501Z,3.83
2022-08-20T22:01:15.986Z,4.45
2022-08-20T22:03:43.582Z,3.40
2022-08-20T22:06:13.741Z,7.07
2022-08-20T22:08:41.418Z,5.85
2022-08-20T22:11:11.137Z,6.38
2022-08-20T22:13:40.103Z,4.45
2022-08-20T22:16:09.619Z,7.38
2022-08-20T22:18:37.428Z,6.25
2022-08-20T22:21:08.590Z,5.43
2022-08-20T22:23:36.275Z,6.93
2022-08-20T22:26:03.347Z,5.15
2022-08-20T22:28:30.504Z,3.22
2022-08-20T22:30:57.769Z,6.25
2022-08-20T22:33:25.151Z,7.43
2022-08-20T22:35:54.735Z,6.85
2022-08-20T22:38:22.908Z,4.60
2022-08-20T22:40:50.085Z,5.00
2022-08-20T22:43:17.821Z,4.75
2022-08-20T22:45:47.424Z,9.23
2022-08-20T22:48:17.441Z,6.53
2022-08-20T22:50:45.417Z,6.38
2022-08-20T22:53:14.231Z,5.68
2022-08-20T22:55:41.499Z,6.18
2022-08-20T22:58:08.722Z,6.93
2022-08-20T23:00:38.193Z,7.30
2022-08-20T23:03:07.008Z,5.82
2022-08-20T23:05:36.751Z,6.65
2022-08-20T23:08:06.105Z,7.32
2022-08-20T23:10:35.077Z,6.90
2022-08-20T23:13:02.156Z,7.55
2022-08-20T23:15:29.506Z,6.60
2022-08-20T23:18:02.288Z,4.80
2022-08-20T23:20:29.649Z,4.85
2022-08-20T23:22:57.451Z,5.10
2022-08-20T23:25:25.048Z,5.40
2022-08-20T23:28:03.648Z,7.20
2022-08-20T23:30:31.967Z,7.75
2022-08-20T23:33:01.544Z,8.95
2022-08-20T23:35:31.986Z,6.22
2022-08-20T23:38:00.760Z,5.22
2022-08-20T23:40:29.074Z,7.90
2022-08-20T23:42:57.374Z,5.65
2022-08-20T23:45:25.514Z,7.95
2022-08-20T23:47:52.778Z,6.60
2022-08-20T23:50:24.285Z,8.88
2022-08-20T23:55:19.506Z,8.38
2022-08-20T23:57:46.558Z,7.18
